Time;durP1;ratioP1;P1;durP2;ratioP2;P2;SDS_P1;SDS_P2;PMS_P1;PMS_P2;Temp;Humidity;BMP_temperature;BMP_pressure;BME280_temperature;BME280_humidity;BME280_pressure;Samples;Min_cycle;Max_cycle;Signal;HPM_P1;HPM_P2
2022/04/25 00:01:52;;;;;;;15.20;9.00;;;;;;;;;;5068164;28;20954;-83
2022/04/25 00:04:24;;;;;;;20.83;9.00;;;;;;;;;;5071276;28;20052;-82
2022/04/25 00:09:49;;;;;;;12.10;6.78;;;;;;;;;;5072576;28;20337;-83
2022/04/25 00:12:29;;;;;;;21.27;8.30;;;;;;;;;;5075910;28;20060;-82
2022/04/25 00:15:07;;;;;;;11.95;6.75;;;;;;;;;;5075321;28;20060;-82
2022/04/25 00:17:36;;;;;;;15.10;8.13;;;;;;;;;;5079956;27;20045;-82
2022/04/25 00:20:02;;;;;;;17.20;8.77;;;;;;;;;;5087991;28;20044;-83
2022/04/25 00:25:34;;;;;;;19.67;8.07;;;;;;;;;;5071445;28;20135;-82
2022/04/25 00:28:09;;;;;;;12.13;7.97;;;;;;;;;;5070566;28;20114;-83
2022/04/25 00:30:43;;;;;;;18.33;7.97;;;;;;;;;;5086976;28;20072;-82
2022/04/25 00:33:12;;;;;;;18.13;8.45;;;;;;;;;;5075074;28;20048;-83
2022/04/25 00:35:47;;;;;;;14.68;8.88;;;;;;;;;;5088268;27;20124;-83
2022/04/25 00:38:31;;;;;;;15.85;8.00;;;;;;;;;;5066046;28;20052;-83
2022/04/25 00:41:05;;;;;;;15.10;8.05;;;;;;;;;;5053780;28;20053;-83
2022/04/25 00:43:36;;;;;;;18.27;8.73;;;;;;;;;;5032393;28;20548;-83
2022/04/25 00:46:09;;;;;;;18.83;8.48;;;;;;;;;;5030966;28;20590;-83
2022/04/25 00:48:49;;;;;;;14.93;7.80;;;;;;;;;;5013383;28;20069;-83
2022/04/25 00:51:26;;;;;;;;;;;;;;;;;;;;;
2022/04/25 00:54:17;;;;;;;15.52;8.02;;;;;;;;;;5033072;28;39073;-83
2022/04/25 00:57:00;;;;;;;11.90;8.23;;;;;;;;;;5016348;28;21230;-82
2022/04/25 00:59:35;;;;;;;15.77;7.93;;;;;;;;;;5032715;28;20111;-83
2022/04/25 01:02:26;;;;;;;17.08;8.30;;;;;;;;;;5012383;28;20653;-83
2022/04/25 01:05:09;;;;;;;15.07;7.47;;;;;;;;;;5011794;28;20100;-84
2022/04/25 01:07:39;;;;;;;17.77;8.50;;;;;;;;;;5010348;28;20050;-83
2022/04/25 01:10:17;;;;;;;14.60;9.50;;;;;;;;;;5013841;28;20057;-83
2022/04/25 01:13:03;;;;;;;16.40;8.40;;;;;;;;;;5013555;28;20909;-82
2022/04/25 01:15:49;;;;;;;16.67;7.68;;;;;;;;;;5053133;28;20147;-83
2022/04/25 01:18:21;;;;;;;13.45;7.55;;;;;;;;;;5073354;28;20079;-83
2022/04/25 01:21:11;;;;;;;18.85;7.68;;;;;;;;;;5088514;28;20131;-83
2022/04/25 01:29:19;;;;;;;18.85;8.32;;;;;;;;;;5080497;28;20530;-83
2022/04/25 01:31:48;;;;;;;15.68;7.45;;;;;;;;;;5081348;28;20037;-82
2022/04/25 01:34:22;;;;;;;12.63;7.43;;;;;;;;;;5084095;28;20092;-82
2022/04/25 01:37:10;;;;;;;;;;;;;;;;;;;;;
2022/04/25 01:39:44;;;;;;;12.90;6.70;;;;;;;;;;5072911;28;44338;-83
2022/04/25 01:42:12;;;;;;;13.93;7.07;;;;;;;;;;5070307;28;20095;-83
2022/04/25 01:47:31;;;;;;;15.93;8.00;;;;;;;;;;5071630;28;20688;-82
2022/04/25 01:50:10;;;;;;;14.43;7.55;;;;;;;;;;5083226;27;20057;-83
2022/04/25 01:52:39;;;;;;;16.40;8.02;;;;;;;;;;5085930;28;20107;-82
2022/04/25 01:55:14;;;;;;;16.08;7.20;;;;;;;;;;5068222;28;20112;-82
2022/04/25 01:57:45;;;;;;;17.90;8.30;;;;;;;;;;5070112;28;20053;-83
2022/04/25 02:00:28;;;;;;;;;;;;;;;;;;;;;
2022/04/25 02:06:13;;;;;;;12.07;7.65;;;;;;;;;;5072440;28;20057;-83
2022/04/25 02:08:46;;;;;;;19.20;7.88;;;;;;;;;;5078092;27;20044;-82
2022/04/25 02:11:30;;;;;;;13.13;6.97;;;;;;;;;;5076720;27;20052;-84
2022/04/25 02:14:12;;;;;;;16.52;10.95;;;;;;;;;;5070898;28;20052;-83
2022/04/25 02:16:57;;;;;;;14.82;8.52;;;;;;;;;;5056274;28;20048;-83
2022/04/25 02:19:35;;;;;;;15.13;7.93;;;;;;;;;;5072953;28;20036;-83
2022/04/25 02:22:05;;;;;;;18.25;8.50;;;;;;;;;;5074738;28;20082;-84
2022/04/25 02:24:57;;;;;;;11.63;5.60;;;;;;;;;;5055707;28;20128;-84
2022/04/25 02:27:29;;;;;;;16.58;7.30;;;;;;;;;;5069561;28;20044;-83
2022/04/25 02:30:01;;;;;;;18.15;7.60;;;;;;;;;;5074171;28;20044;-84
2022/04/25 02:32:42;;;;;;;15.15;7.43;;;;;;;;;;5073535;28;20106;-83
2022/04/25 02:35:14;;;;;;;15.60;8.65;;;;;;;;;;5090126;27;20049;-84
2022/04/25 02:38:11;;;;;;;13.10;6.85;;;;;;;;;;5071760;28;20824;-83
2022/04/25 02:41:04;;;;;;;16.88;8.95;;;;;;;;;;5086939;28;20088;-83
2022/04/25 02:43:32;;;;;;;;;;;;;;;;;;5087728;28;20049;-84
2022/04/25 02:46:06;;;;;;;10.13;5.50;;;;;;;;;;5075126;28;20468;-83
2022/04/25 02:48:51;;;;;;;18.35;9.07;;;;;;;;;;5075929;28;20107;-84
2022/04/25 02:51:26;;;;;;;12.48;7.80;;;;;;;;;;5089574;27;20079;-84
2022/04/25 02:53:54;;;;;;;16.23;7.38;;;;;;;;;;5093434;27;20045;-84
2022/04/25 02:56:29;;;;;;;16.90;7.05;;;;;;;;;;5077134;28;20049;-83
2022/04/25 02:59:07;;;;;;;13.60;8.38;;;;;;;;;;5093280;27;20056;-84
2022/04/25 03:02:02;;;;;;;18.92;8.88;;;;;;;;;;5092204;28;20064;-83
2022/04/25 03:04:39;;;;;;;10.95;6.78;;;;;;;;;;5094328;27;20049;-83
2022/04/25 03:07:09;;;;;;;10.32;6.47;;;;;;;;;;5078765;28;20041;-83
2022/04/25 03:09:45;;;;;;;17.42;6.97;;;;;;;;;;5089639;28;20045;-83
2022/04/25 03:12:12;;;;;;;15.02;7.90;;;;;;;;;;5087274;28;20052;-84
2022/04/25 03:15:04;;;;;;;19.33;8.23;;;19.80;91.30;;;;;;5071738;28;20045;-83
2022/04/25 03:17:49;;;;;;;15.48;7.07;;;12.60;99.90;;;;;;5076497;28;20053;-83
2022/04/25 03:20:49;;;;;;;15.95;6.85;;;12.20;99.90;;;;;;5089295;28;20712;-83
2022/04/25 03:23:50;;;;;;;12.60;7.15;;;12.10;99.90;;;;;;5072057;28;20044;-83
2022/04/25 03:26:24;;;;;;;11.70;6.72;;;12.50;99.90;;;;;;5071981;28;20049;-83
2022/04/25 03:29:11;;;;;;;;;;;;;;;;;;;;;
2022/04/25 03:31:52;;;;;;;13.95;7.68;;;12.40;99.90;;;;;;5075662;28;39120;-84
2022/04/25 03:34:23;;;;;;;10.43;4.95;;;12.40;99.90;;;;;;5064659;28;20055;-83
2022/04/25 03:37:02;;;;;;;12.27;5.33;;;12.30;99.90;;;;;;5067546;28;20049;-83
2022/04/25 03:43:07;;;;;;;15.95;7.35;;;11.80;99.90;;;;;;5067733;28;20080;-83
2022/04/25 03:45:34;;;;;;;8.40;4.35;;;12.20;99.90;;;;;;5068577;28;20051;-83
2022/04/25 03:48:18;;;;;;;17.48;6.50;;;12.20;99.90;;;;;;5069432;28;20045;-84
2022/04/25 03:50:53;;;;;;;17.67;6.25;;;12.20;99.90;;;;;;5069951;28;20049;-84
2022/04/25 03:53:31;;;;;;;11.43;5.63;;;12.10;99.90;;;;;;5074247;28;20143;-84
2022/04/25 03:58:44;;;;;;;11.82;6.55;;;12.20;99.90;;;;;;5071230;28;20592;-84
2022/04/25 04:01:18;;;;;;;13.15;5.57;;;12.20;99.90;;;;;;5070237;28;20048;-84
2022/04/25 04:04:05;;;;;;;;;;;;;;;;;;;;;
2022/04/25 04:06:37;;;;;;;6.88;3.58;;;11.90;99.90;;;;;;5070303;28;39054;-84
2022/04/25 04:12:14;;;;;;;14.68;5.55;;;11.90;99.90;;;;;;5071846;28;20048;-84
2022/04/25 04:14:50;;;;;;;14.38;6.03;;;11.90;99.90;;;;;;5069268;28;20051;-84
2022/04/25 04:17:28;;;;;;;12.15;5.88;;;11.90;99.90;;;;;;5068908;28;20571;-84
2022/04/25 04:20:19;;;;;;;11.43;5.97;;;12.40;99.90;;;;;;5065165;28;20079;-83
2022/04/25 04:22:47;;;;;;;14.43;5.05;;;11.80;99.90;;;;;;5072304;28;20064;-84
2022/04/25 04:25:22;;;;;;;12.77;6.10;;;11.70;99.90;;;;;;5067913;28;20053;-84
2022/04/25 04:27:54;;;;;;;10.45;6.30;;;11.10;99.90;;;;;;5071178;28;20056;-83
2022/04/25 04:30:29;;;;;;;14.47;5.67;;;11.70;99.90;;;;;;5070406;28;20048;-84
2022/04/25 04:33:11;;;;;;;12.27;6.47;;;11.70;99.90;;;;;;5084812;28;20040;-83
2022/04/25 04:38:51;;;;;;;13.98;6.97;;;11.60;99.90;;;;;;5070502;28;20065;-84
2022/04/25 04:41:17;;;;;;;13.30;5.72;;;11.50;99.90;;;;;;5074002;28;20123;-83
2022/04/25 04:43:43;;;;;;;14.32;6.93;;;11.00;99.90;;;;;;5068650;28;20049;-83
2022/04/25 04:46:24;;;;;;;11.07;5.18;;;11.50;99.90;;;;;;5069094;28;20094;-83
2022/04/25 04:49:04;;;;;;;23.98;5.20;;;11.30;99.90;;;;;;5072876;28;22436;-83
2022/04/25 04:51:36;;;;;;;13.10;5.78;;;11.40;99.90;;;;;;5070588;28;20044;-84
2022/04/25 04:54:05;;;;;;;18.27;5.93;;;11.40;99.90;;;;;;5084097;28;20045;-83
2022/04/25 04:56:36;;;;;;;14.60;6.75;;;11.40;99.90;;;;;;5069218;28;20075;-83
2022/04/25 04:59:13;;;;;;;10.53;4.57;;;11.20;99.90;;;;;;5071586;28;20700;-83
2022/04/25 05:01:48;;;;;;;14.88;6.72;;;11.40;99.90;;;;;;5073955;28;20039;-83
2022/04/25 05:04:17;;;;;;;6.00;3.90;;;11.40;99.90;;;;;;5070652;28;20044;-85
2022/04/25 05:07:27;;;;;;;12.82;5.85;;;11.40;99.90;;;;;;5067389;28;20140;-83
2022/04/25 05:09:59;;;;;;;16.58;7.75;;;12.20;99.90;;;;;;5070637;28;21211;-81
2022/04/25 05:12:28;;;;;;;12.27;6.13;;;11.40;99.90;;;;;;5069335;28;20057;-81
2022/04/25 05:15:03;;;;;;;16.88;7.78;;;11.30;99.90;;;;;;5085906;27;20048;-81
2022/04/25 05:17:48;;;;;;;12.05;4.88;;;11.50;99.90;;;;;;5080395;28;20064;-87
2022/04/25 05:20:23;;;;;;;22.15;8.00;;;11.50;99.90;;;;;;5069633;28;20045;-82
2022/04/25 05:23:36;;;;;;;18.90;8.80;;;11.40;99.90;;;;;;5073274;28;20060;-85
2022/04/25 05:26:15;;;;;;;20.85;9.52;;;11.30;99.90;;;;;;5074659;28;20056;-90
2022/04/25 05:28:49;;;;;;;15.63;7.93;;;11.40;99.90;;;;;;5074480;28;20162;-80
2022/04/25 05:31:49;;;;;;;23.30;10.25;;;11.40;99.90;;;;;;5074770;28;20041;-84
2022/04/25 05:34:14;;;;;;;26.95;9.18;;;10.70;99.90;;;;;;5073725;28;20049;-83
2022/04/25 05:36:40;;;;;;;23.58;9.95;;;11.40;99.90;;;;;;5068007;28;20041;-83
2022/04/25 05:39:06;;;;;;;23.77;8.65;;;11.50;99.90;;;;;;5068921;28;20124;-82
2022/04/25 05:42:10;;;;;;;25.48;11.52;;;11.40;99.90;;;;;;5069769;28;20147;-89
2022/04/25 05:44:36;;;;;;;18.92;10.48;;;11.40;99.90;;;;;;5064197;28;20045;-83
2022/04/25 05:47:07;;;;;;;16.27;9.10;;;11.50;99.90;;;;;;5074216;28;20045;-85
2022/04/25 05:52:24;;;;;;;26.13;10.70;;;11.40;99.90;;;;;;5076527;28;20045;-86
2022/04/25 05:54:52;;;;;;;19.52;10.07;;;11.40;99.90;;;;;;5071782;28;20752;-85
2022/04/25 05:57:22;;;;;;;19.30;9.07;;;11.40;99.90;;;;;;5072090;28;20039;-86
2022/04/25 05:59:48;;;;;;;16.67;8.85;;;11.50;99.90;;;;;;5069264;28;20270;-84
2022/04/25 06:02:17;;;;;;;22.80;11.38;;;11.50;99.90;;;;;;5073722;28;20049;-86
2022/04/25 06:04:43;;;;;;;20.13;11.52;;;11.50;99.90;;;;;;5074999;28;20048;-86
2022/04/25 06:07:09;;;;;;;22.73;10.50;;;11.50;99.90;;;;;;5079229;28;20051;-86
2022/04/25 06:09:35;;;;;;;21.42;11.18;;;11.60;99.90;;;;;;5075516;28;20041;-87
2022/04/25 06:12:04;;;;;;;23.05;12.60;;;11.70;99.90;;;;;;5074478;28;20048;-86
2022/04/25 06:14:34;;;;;;;25.25;11.60;;;11.70;99.90;;;;;;5074761;28;20052;-86
2022/04/25 06:17:00;;;;;;;21.58;11.52;;;11.70;99.90;;;;;;5079982;28;20089;-82
2022/04/25 06:19:26;;;;;;;23.42;11.73;;;11.70;99.90;;;;;;5092549;27;20036;-82
2022/04/25 06:21:52;;;;;;;24.75;12.00;;;11.70;99.90;;;;;;5073514;28;20418;-83
2022/04/25 06:24:18;;;;;;;25.75;12.50;;;11.80;99.90;;;;;;5080694;27;20043;-83
2022/04/25 06:27:13;;;;;;;33.55;12.60;;;11.70;99.90;;;;;;5076947;27;21781;-82
2022/04/25 06:29:42;;;;;;;19.02;11.52;;;11.70;99.90;;;;;;5076934;28;20052;-82
2022/04/25 06:32:08;;;;;;;22.95;9.75;;;11.70;99.90;;;;;;5092277;27;20074;-82
2022/04/25 06:34:34;;;;;;;20.80;10.73;;;11.70;99.90;;;;;;5093702;27;20049;-83
2022/04/25 06:37:00;;;;;;;22.55;12.20;;;11.70;99.90;;;;;;5092635;27;20048;-84
2022/04/25 06:39:28;;;;;;;24.05;12.25;;;11.70;99.90;;;;;;5094462;27;20067;-84
2022/04/25 06:41:54;;;;;;;27.00;12.80;;;11.70;99.90;;;;;;5074539;28;20039;-84
2022/04/25 06:44:59;;;;;;;19.63;10.57;;;11.70;99.90;;;;;;5083363;28;20036;-84
2022/04/25 06:48:13;;;;;;;;;;;;;;;;;;;;;
2022/04/25 06:51:08;;;;;;;20.33;7.85;;;12.10;99.90;;;;;;5044665;28;41108;-83
2022/04/25 07:00:51;;;;;;;26.50;12.05;;;11.80;99.90;;;;;;5053018;28;20052;-83
2022/04/25 07:03:42;;;;;;;17.20;11.20;;;11.80;99.90;;;;;;5024809;28;20050;-83
2022/04/25 07:07:08;;;;;;;21.77;10.70;;;11.80;99.90;;;;;;5032536;28;20060;-84
2022/04/25 07:09:40;;;;;;;23.95;10.75;;;11.70;99.90;;;;;;5057457;28;20045;-83
2022/04/25 07:12:27;;;;;;;20.00;11.10;;;11.90;99.90;;;;;;5053541;28;20040;-84
2022/04/25 07:16:02;;;;;;;;;;;;;;;;;;;;;
2022/04/25 07:18:54;;;;;;;13.55;9.02;;;12.30;99.90;;;;;;5076704;28;39287;-84
2022/04/25 07:31:38;;;;;;;20.70;11.05;;;12.20;99.90;;;;;;5076284;28;20048;-84
2022/04/25 07:34:29;;;;;;;18.30;10.27;;;12.20;99.90;;;;;;5094286;28;20590;-84
2022/04/25 07:37:24;;;;;;;17.08;9.30;;;12.20;99.90;;;;;;5075678;28;20565;-84
2022/04/25 07:40:18;;;;;;;19.75;10.70;;;12.60;99.90;;;;;;5080397;28;21026;-84
2022/04/25 07:43:10;;;;;;;22.27;11.52;;;12.20;99.90;;;;;;5069839;28;20898;-84
2022/04/25 07:46:01;;;;;;;26.60;12.10;;;12.70;99.90;;;;;;5071704;28;20088;-84
2022/04/25 07:48:51;;;;;;;19.05;11.50;;;12.30;99.90;;;;;;5055944;28;20091;-83
2022/04/25 07:51:48;;;;;;;19.90;10.02;;;12.40;99.90;;;;;;5059159;28;20047;-83
2022/04/25 07:54:29;;;;;;;;;;;;;;;;;;;;;
2022/04/25 07:57:40;;;;;;;28.13;13.07;;;12.10;99.90;;;;;;5073552;28;43292;-83
2022/04/25 08:00:30;;;;;;;18.92;10.40;;;13.00;99.90;;;;;;5025578;28;20046;-84
2022/04/25 08:03:54;;;;;;;24.15;11.32;;;12.50;99.90;;;;;;5028312;28;20136;-84
2022/04/25 08:06:52;;;;;;;9.40;5.97;;;12.90;99.90;;;;;;4979971;28;20118;-83
2022/04/25 08:10:02;;;;;;;19.88;10.32;;;12.70;99.90;;;;;;5009593;28;20076;-83
2022/04/25 08:19:14;;;;;;;19.92;10.10;;;12.60;99.90;;;;;;4956506;28;20525;-83
2022/04/25 08:22:10;;;;;;;19.65;10.75;;;13.00;99.90;;;;;;5029219;28;20057;-83
2022/04/25 08:25:13;;;;;;;21.20;11.10;;;12.70;99.90;;;;;;5030681;28;20087;-83
2022/04/25 08:30:56;;;;;;;25.63;12.85;;;12.90;99.90;;;;;;5019658;28;20347;-83
2022/04/25 08:33:35;;;;;;;21.35;10.20;;;13.00;99.90;;;;;;5075032;28;20106;-83
2022/04/25 08:42:44;;;;;;;17.80;10.70;;;13.10;99.90;;;;;;5080167;28;20094;-83
2022/04/25 08:48:12;;;;;;;19.63;10.43;;;13.10;99.90;;;;;;5081951;28;20041;-83
2022/04/25 08:51:16;;;;;;;18.75;10.90;;;12.90;99.90;;;;;;5080300;28;20045;-83
2022/04/25 08:57:16;;;;;;;18.13;10.35;;;13.90;99.90;;;;;;5078155;28;20060;-84
2022/04/25 08:59:50;;;;;;;17.50;10.60;;;12.90;99.90;;;;;;5090791;28;20048;-83
2022/04/25 09:02:29;;;;;;;16.15;9.95;;;13.10;99.90;;;;;;5077894;28;20052;-83
2022/04/25 09:05:18;;;;;;;19.73;10.10;;;12.90;99.90;;;;;;5069856;28;20048;-84
2022/04/25 09:08:07;;;;;;;18.52;11.50;;;13.50;99.90;;;;;;5072959;28;20093;-83
2022/04/25 09:20:54;;;;;;;23.70;11.38;;;14.00;99.90;;;;;;5090116;28;20052;-84
2022/04/25 09:23:50;;;;;;;17.52;9.00;;;14.30;99.90;;;;;;5048565;28;20043;-83
2022/04/25 09:27:01;;;;;;;19.83;10.57;;;13.50;99.90;;;;;;5088548;27;20557;-83
2022/04/25 09:33:17;;;;;;;17.23;11.25;;;13.50;99.90;;;;;;5095135;28;20078;-83
2022/04/25 09:36:32;;;;;;;15.18;9.55;;;13.90;99.90;;;;;;5074234;28;20052;-83
2022/04/25 09:42:54;;;;;;;17.08;10.55;;;12.80;99.90;;;;;;5094637;28;20083;-84
2022/04/25 09:45:34;;;;;;;17.02;9.73;;;13.60;99.90;;;;;;5069745;28;20064;-84
2022/04/25 09:48:44;;;;;;;;;;;;;;;;;;;;;
2022/04/25 09:55:11;;;;;;;19.80;11.27;;;14.70;99.90;;;;;;5090607;28;20045;-83
2022/04/25 09:57:53;;;;;;;16.77;9.52;;;14.90;99.90;;;;;;5094605;28;20594;-84
2022/04/25 10:03:57;;;;;;;16.92;9.20;;;15.00;99.90;;;;;;5032469;28;19921;-84
2022/04/25 10:07:03;;;;;;;15.00;8.98;;;15.00;99.90;;;;;;5040860;28;20044;-85
2022/04/25 10:09:44;;;;;;;19.30;10.63;;;15.00;99.90;;;;;;5021961;28;20228;-85
2022/04/25 10:12:32;;;;;;;20.60;9.73;;;14.80;99.90;;;;;;5062894;28;20055;-84
2022/04/25 10:15:43;;;;;;;19.02;9.73;;;15.10;99.90;;;;;;5079520;28;20040;-84
2022/04/25 10:18:16;;;;;;;16.45;9.98;;;15.00;99.90;;;;;;5068195;28;20103;-84
2022/04/25 10:21:07;;;;;;;20.70;10.32;;;14.30;99.90;;;;;;5092235;28;20047;-84
2022/04/25 10:23:48;;;;;;;15.90;8.98;;;14.50;99.90;;;;;;5083200;28;20044;-84
2022/04/25 10:27:06;;;;;;;19.30;8.57;;;14.30;99.90;;;;;;5082870;28;20126;-84
2022/04/25 10:33:46;;;;;;;8.48;4.97;;;14.10;99.90;;;;;;5092380;28;20064;-84
2022/04/25 10:36:43;;;;;;;14.80;8.77;;;14.30;99.90;;;;;;4993631;28;20105;-84
2022/04/25 10:49:35;;;;;;;15.63;8.80;;;15.00;99.90;;;;;;5073826;28;20059;-84
2022/04/25 10:55:46;;;;;;;14.38;9.27;;;15.20;99.90;;;;;;5079567;28;20044;-84
2022/04/25 10:58:53;;;;;;;13.63;8.43;;;15.40;99.90;;;;;;5075797;28;20059;-84
2022/04/25 11:02:02;;;;;;;14.65;8.18;;;15.70;99.90;;;;;;5076438;28;20133;-84
2022/04/25 11:04:49;;;;;;;12.48;7.25;;;16.00;99.90;;;;;;5060349;28;20045;-84
2022/04/25 11:07:58;;;;;;;15.98;9.30;;;15.90;99.90;;;;;;5073463;28;20047;-84
2022/04/25 11:11:09;;;;;;;15.98;8.27;;;15.60;99.90;;;;;;5054445;28;20084;-83
2022/04/25 11:14:05;;;;;;;13.02;8.20;;;15.50;99.90;;;;;;5053128;28;20044;-84
2022/04/25 11:17:05;;;;;;;15.05;9.40;;;15.40;99.90;;;;;;5070323;28;20052;-84
2022/04/25 11:20:11;;;;;;;;;;;;;;;;;;;;;
2022/04/25 11:22:50;;;;;;;;;;;;;;;;;;;;;
2022/04/25 11:26:04;;;;;;;14.45;8.52;;;15.20;99.90;;;;;;5072874;28;42690;-84
2022/04/25 11:29:01;;;;;;;13.25;6.95;;;15.30;99.90;;;;;;4996322;28;20046;-84
2022/04/25 11:31:55;;;;;;;13.68;8.23;;;15.50;99.90;;;;;;4996254;28;20550;-84
2022/04/25 11:34:56;;;;;;;14.95;9.15;;;15.40;99.90;;;;;;4966220;28;20322;-84
2022/04/25 11:37:48;;;;;;;13.93;8.55;;;15.20;99.90;;;;;;4961742;28;20065;-84
2022/04/25 11:40:20;;;;;;;;;;;15.20;99.90;;;;;;5015645;28;20165;-84
2022/04/25 11:43:03;;;;;;;15.13;8.45;;;15.10;99.90;;;;;;5015693;28;19921;-84
2022/04/25 11:46:27;;;;;;;;;;;;;;;;;;;;;
2022/04/25 11:49:08;;;;;;;13.90;7.00;;;15.30;99.90;;;;;;5015814;28;44040;-84
2022/04/25 11:52:00;;;;;;;;;;;;;;;;;;;;;
2022/04/25 11:54:43;;;;;;;;;;;15.10;99.90;;;;;;5033922;28;40358;-83
2022/04/25 11:57:43;;;;;;;12.80;6.60;;;14.80;99.90;;;;;;5033273;28;19962;-84
2022/04/25 12:03:53;;;;;;;14.23;7.95;;;15.70;99.90;;;;;;5030754;28;20108;-84
2022/04/25 12:06:28;;;;;;;11.82;6.97;;;15.30;99.90;;;;;;5011174;28;20057;-84
2022/04/25 12:18:53;;;;;;;10.27;5.43;;;15.30;99.90;;;;;;5072039;28;20150;-84
2022/04/25 12:21:28;;;;;;;11.13;6.32;;;15.50;99.90;;;;;;5050097;28;20053;-84
2022/04/25 12:24:24;;;;;;;8.55;6.13;;;15.50;99.90;;;;;;5052016;28;20623;-84
2022/04/25 12:27:31;;;;;;;13.48;5.25;;;15.20;99.90;;;;;;5052391;28;20144;-83
2022/04/25 12:30:34;;;;;;;10.68;5.68;;;15.30;99.90;;;;;;5071194;28;20048;-84
2022/04/25 12:33:24;;;;;;;;;;;14.80;99.90;;;;;;5077049;28;20874;-84
2022/04/25 12:36:21;;;;;;;8.25;5.40;;;15.70;99.90;;;;;;5093641;27;19928;-84
2022/04/25 12:39:15;;;;;;;11.40;6.95;;;15.60;99.90;;;;;;5072036;28;20041;-83
2022/04/25 12:42:30;;;;;;;;;;;;;;;;;;;;;
2022/04/25 12:45:21;;;;;;;8.15;5.60;;;15.60;99.90;;;;;;5067256;28;44330;-84
2022/04/25 12:48:20;;;;;;;9.00;4.93;;;15.80;99.90;;;;;;5090203;28;20044;-84
2022/04/25 12:51:21;;;;;;;12.93;5.63;;;16.00;99.90;;;;;;5083834;28;20057;-84
2022/04/25 12:54:07;;;;;;;9.07;6.43;;;16.40;99.90;;;;;;5068676;28;20041;-84
2022/04/25 13:00:29;;;;;;;10.55;5.43;;;16.10;99.90;;;;;;5073608;28;20052;-84
2022/04/25 13:03:28;;;;;;;8.75;4.95;;;15.80;99.90;;;;;;5068635;28;20056;-85
2022/04/25 13:06:02;;;;;;;10.52;5.47;;;16.10;99.90;;;;;;5071791;28;20053;-84
2022/04/25 13:08:33;;;;;;;9.90;4.80;;;16.20;99.90;;;;;;5070989;28;20045;-84
2022/04/25 13:11:08;;;;;;;7.03;4.78;;;16.00;99.90;;;;;;5068209;28;20056;-85
2022/04/25 13:14:14;;;;;;;6.90;3.88;;;16.40;99.90;;;;;;5074383;28;20044;-84
2022/04/25 13:16:57;;;;;;;10.93;6.10;;;16.30;99.70;;;;;;5075301;28;20293;-85
2022/04/25 13:20:05;;;;;;;6.63;3.92;;;16.00;99.20;;;;;;5082455;28;20041;-84
2022/04/25 13:26:09;;;;;;;6.03;4.28;;;16.00;98.90;;;;;;5093517;28;20173;-84
2022/04/25 13:29:00;;;;;;;5.63;3.53;;;16.20;98.70;;;;;;5067106;28;20052;-84
2022/04/25 13:31:50;;;;;;;7.43;4.50;;;16.60;99.10;;;;;;5071550;28;20044;-84
2022/04/25 13:37:39;;;;;;;6.60;4.00;;;16.80;97.40;;;;;;5087664;28;20044;-84
2022/04/25 13:43:44;;;;;;;5.88;3.78;;;16.30;96.90;;;;;;5038942;28;20049;-84
2022/04/25 13:46:52;;;;;;;5.78;3.85;;;16.20;96.30;;;;;;5080651;27;20102;-84
2022/04/25 13:49:55;;;;;;;8.48;4.00;;;16.30;96.20;;;;;;5075555;28;21030;-84
2022/04/25 13:52:44;;;;;;;5.43;3.17;;;16.50;96.40;;;;;;5079232;28;20048;-84
2022/04/25 13:55:46;;;;;;;3.80;2.75;;;16.70;95.60;;;;;;5079026;28;20037;-84
2022/04/25 13:58:37;;;;;;;5.10;3.30;;;17.10;95.00;;;;;;5075956;28;20079;-84
2022/04/25 14:01:38;;;;;;;6.82;3.92;;;17.10;94.90;;;;;;5073671;28;20422;-85
2022/04/25 14:04:36;;;;;;;5.18;3.25;;;17.00;94.50;;;;;;5084376;28;20071;-84
2022/04/25 14:07:53;;;;;;;5.38;3.55;;;16.80;94.40;;;;;;5072754;28;20056;-85
2022/04/25 14:10:32;;;;;;;7.90;3.97;;;16.80;94.50;;;;;;5097856;28;20816;-84
2022/04/25 14:13:45;;;;;;;6.53;2.90;;;17.00;94.30;;;;;;5082420;28;20032;-84
2022/04/25 14:16:24;;;;;;;6.55;2.38;;;17.10;93.60;;;;;;5075148;28;20082;-84
2022/04/25 14:22:30;;;;;;;10.50;4.05;;;17.00;92.10;;;;;;5094110;28;20103;-84
2022/04/25 14:25:33;;;;;;;7.60;3.97;;;17.00;92.10;;;;;;5091116;28;20040;-83
2022/04/25 14:31:13;;;;;;;4.15;2.95;;;16.30;91.50;;;;;;5111271;28;20047;-84
2022/04/25 14:34:10;;;;;;;2.13;1.67;;;16.40;91.80;;;;;;5106916;28;20104;-84
2022/04/25 14:36:44;;;;;;;5.97;2.45;;;16.30;92.00;;;;;;5080020;28;20033;-84
2022/04/25 14:39:39;;;;;;;12.48;3.00;;;16.30;92.00;;;;;;5078278;28;20048;-84
2022/04/25 14:42:48;;;;;;;;;;;;;;;;;;;;;
2022/04/25 14:45:59;;;;;;;7.28;2.67;;;16.40;91.80;;;;;;5095011;28;46025;-85
2022/04/25 14:48:44;;;;;;;3.88;2.55;;;16.20;91.60;;;;;;5097590;28;20078;-84
2022/04/25 14:54:44;;;;;;;;;;;;;;;;;;;;;
2022/04/25 14:57:26;;;;;;;4.32;2.15;;;17.30;90.00;;;;;;5091992;28;42966;-85
2022/04/25 15:00:13;;;;;;;2.13;1.35;;;17.10;89.10;;;;;;5079096;28;20064;-84
2022/04/25 15:03:23;;;;;;;2.45;1.60;;;17.00;88.10;;;;;;5048000;28;20093;-84
2022/04/25 15:06:15;;;;;;;2.97;1.90;;;16.80;87.90;;;;;;5047477;28;20087;-84
2022/04/25 15:09:10;;;;;;;2.83;1.65;;;16.80;87.60;;;;;;5020485;28;20531;-84
2022/04/25 15:11:52;;;;;;;3.45;1.30;;;16.70;87.60;;;;;;5005499;28;20052;-84
2022/04/25 15:14:23;;;;;;;2.25;1.75;;;16.90;87.50;;;;;;5002390;28;20051;-84
2022/04/25 15:17:08;;;;;;;2.60;1.40;;;17.00;87.40;;;;;;5002864;28;20046;-85
2022/04/25 15:23:23;;;;;;;3.42;1.85;;;17.50;87.60;;;;;;4997238;28;20520;-85
2022/04/25 15:26:14;;;;;;;2.58;1.42;;;17.70;86.20;;;;;;4984435;28;20054;-84
2022/04/25 15:29:12;;;;;;;5.22;1.52;;;17.50;84.50;;;;;;5034046;28;20053;-85
2022/04/25 15:31:51;;;;;;;2.85;2.33;;;17.20;83.60;;;;;;5014367;28;20099;-84
2022/04/25 15:34:30;;;;;;;1.73;1.23;;;16.80;83.00;;;;;;5050167;28;20852;-85
2022/04/25 15:37:12;;;;;;;3.13;2.25;;;16.60;82.90;;;;;;5069058;28;20543;-85
2022/04/25 15:39:48;;;;;;;;;;;16.40;83.20;;;;;;5073196;28;20056;-84
2022/04/25 15:42:51;;;;;;;1.80;1.20;;;16.50;83.00;;;;;;5054489;28;19921;-84
2022/04/25 15:45:30;;;;;;;;;;;16.70;82.40;;;;;;5069676;28;20033;-84
2022/04/25 15:48:13;;;;;;;2.22;1.50;;;16.80;82.10;;;;;;5054747;28;19955;-86
2022/04/25 15:51:16;;;;;;;4.20;1.35;;;16.90;82.30;;;;;;5057643;28;20530;-84
2022/04/25 15:59:56;;;;;;;3.35;1.48;;;18.00;81.70;;;;;;5053642;28;20033;-84
2022/04/25 16:02:32;;;;;;;4.53;1.77;;;17.40;79.90;;;;;;5042625;28;20084;-84
2022/04/25 16:05:24;;;;;;;;;;;;;;;;;;;;;
2022/04/25 16:14:38;;;;;;;1.88;1.02;;;16.80;79.60;;;;;;5036329;28;20561;-85
2022/04/25 16:17:38;;;;;;;1.90;1.40;;;17.00;79.50;;;;;;5036166;28;20621;-85
2022/04/25 16:20:38;;;;;;;2.92;1.13;;;16.90;79.20;;;;;;5042611;28;20045;-85
2022/04/25 16:24:03;;;;;;;1.63;1.48;;;16.60;78.90;;;;;;5040419;28;21170;-85
2022/04/25 16:26:57;;;;;;;2.50;1.20;;;17.40;78.90;;;;;;5049987;28;20531;-84
2022/04/25 16:32:58;;;;;;;1.70;0.98;;;17.00;77.80;;;;;;5041619;28;20053;-86
2022/04/25 16:39:13;;;;;;;1.30;1.20;;;16.80;77.90;;;;;;5053244;28;20057;-84
2022/04/25 16:45:25;;;;;;;2.72;1.40;;;16.70;78.20;;;;;;5058853;28;20094;-84
2022/04/25 16:48:32;;;;;;;2.72;1.30;;;16.60;78.00;;;;;;5053383;28;20052;-85
2022/04/25 16:51:27;;;;;;;2.75;1.13;;;16.60;77.80;;;;;;5056226;28;20052;-84
2022/04/25 16:54:16;;;;;;;3.42;1.50;;;16.60;77.10;;;;;;5039689;28;20057;-85
2022/04/25 16:57:15;;;;;;;4.72;1.65;;;16.60;77.60;;;;;;5055207;28;20103;-84
2022/04/25 17:00:32;;;;;;;2.53;1.30;;;16.10;77.80;;;;;;5055213;28;20090;-84
2022/04/25 17:03:09;;;;;;;2.28;1.17;;;16.40;78.40;;;;;;5054447;28;20060;-84
2022/04/25 17:06:20;;;;;;;2.28;0.90;;;16.60;78.40;;;;;;5070949;28;20056;-84
2022/04/25 17:09:21;;;;;;;5.38;1.58;;;16.50;78.30;;;;;;5041514;28;20162;-84
2022/04/25 17:12:00;;;;;;;;;;;;;;;;;;;;;
2022/04/25 17:14:31;;;;;;;3.30;1.20;;;16.80;78.90;;;;;;5054238;28;45915;-85
2022/04/25 17:21:17;;;;;;;;;;;;;;;;;;;;;
2022/04/25 17:24:04;;;;;;;4.00;1.35;;;16.20;79.00;;;;;;5091210;28;38288;-84
2022/04/25 17:26:46;;;;;;;;;;;;;;;;;;;;;
2022/04/25 17:29:38;;;;;;;;;;;15.90;79.30;;;;;;5093524;28;42752;-85
2022/04/25 17:35:43;;;;;;;;;;;;;;;;;;;;;
